Hudson, NH

12:07 PM EDT on October 22, 2014 (GMT -0400)
Highland St. | Change Station
CLOSE
Current Station
Personal Weather Station
Location: Hudson, NH
Elevation: 190 ft
Nearby Weather Stations
Active Advisory: Areal Flood Watch

Elev 190 ft 42.78 °N, 71.41 °W | Updated 1 minute ago

Overcast
Overcast
49.9 °F
Feels Like 49 °F
N
4.0
Wind Variable Wind from NW
Gusts 7.0 mph

Today
High -- | Low -- °F
--% Chance of Precip.
Yesterday
High -- | Low -- °F
Precip. -- in
7:07 AM 5:52 PM
Waning Crescent, 2% visible
Pressure 30.80 in
Visibility 2.0 miles
Clouds Overcast 1000 ft
Windchill 49 °F
Dew Point 48 °F
Humidity 94%
Rainfall 0.07 in
Snow Depth Not available.
UV 0.0 out of 12
Pollen .10 out of 12
Air Quality Not available.
Flu Activity Local Activity
METAR KASH 221551Z 02009KT 2SM -RA BR OVC010 10/09 A3005 RMK AO2 T01000094 CIG 007V015 RAB1458 P0000 SLP428 $

More Conditions Fewer Conditions

Pressure 30.80 in
Visibility 2.0 miles
Clouds Overcast 1000 ft
Windchill 49 °F
Dew Point 48 °F
Humidity 94%
Rainfall 0.07 in
Snow Depth Not available.
UV 0.0 out of 12
Pollen .10 out of 12
Air Quality Not available.
Flu Activity Local Activity
METAR KASH 221551Z 02009KT 2SM -RA BR OVC010 10/09 A3005 RMK AO2 T01000094 CIG 007V015 RAB1458 P0000 SLP428 $

More Conditions Fewer Conditions

10-Day Weather Forecast

Almanac

Astronomy

Oct. 22, 2014 Rise Set
Actual Time 7:07 AM EDT 5:52 PM EDT
Civil Twilight 6:38 AM EDT 6:21 PM EDT
Nautical Twilight 6:05 AM EDT 6:54 PM EDT
Astronomical Twilight 5:32 AM EDT 7:26 PM EDT
Moon 5:43 AM EDT 5:18 PM EDT
Length of Visible Light 11h 42m
Length of Day
10h 45m
Tomorrow will be 2m 44s shorter.
Waning Crescent, 2% of the Moon is Illuminated
Today
Waning Crescent
Oct 23
New
Oct 30
First Quarter
Nov 6
Full
Nov 14
Last Quarter

Today's Extremes

State Highs State Lows

Community

WunderPhotos

Upload Photos

1,763,956 photos uploaded!

Nearby

Air Quality

  Air Quality AQ Index Pollutant
Wednesday Good
PM2.5
Wednesday Good
OZONE
Thursday Good
PM2.5
Thursday Good
OZONE

Snow Depth

Station Depth Elevation
No new snow has been reported.

Earthquake Activity

City Distance Mag. Time & Date
No recent earthquake activity has been reported nearby.
Minimum magnitude displayed is 2.5.

Coastal Water Temperatures

Place Temperature
Boston, MA 57.0 °F
Fall River, MA 63.0 °F

Nearby Weather Stations